sensor_id;sensor_type;location;lat;lon;timestamp;temperature;humidity
20524;DHT22;10420;48.542;12.270;2022-11-02T00:02:55;8.80;99.90
20524;DHT22;10420;48.542;12.270;2022-11-02T00:07:56;8.80;99.90
20524;DHT22;10420;48.542;12.270;2022-11-02T00:12:57;8.70;99.90
20524;DHT22;10420;48.542;12.270;2022-11-02T00:18:01;8.70;99.90
20524;DHT22;10420;48.542;12.270;2022-11-02T00:23:02;8.60;99.90
20524;DHT22;10420;48.542;12.270;2022-11-02T00:28:04;8.70;99.90
20524;DHT22;10420;48.542;12.270;2022-11-02T00:33:04;8.60;99.90
20524;DHT22;10420;48.542;12.270;2022-11-02T00:38:05;8.60;99.90
20524;DHT22;10420;48.542;12.270;2022-11-02T00:43:06;8.60;99.90
20524;DHT22;10420;48.542;12.270;2022-11-02T00:48:06;8.50;99.90
20524;DHT22;10420;48.542;12.270;2022-11-02T00:53:07;8.60;99.90
20524;DHT22;10420;48.542;12.270;2022-11-02T00:58:08;8.50;99.90
20524;DHT22;10420;48.542;12.270;2022-11-02T01:03:08;8.50;99.90
20524;DHT22;10420;48.542;12.270;2022-11-02T01:08:09;8.50;99.90
20524;DHT22;10420;48.542;12.270;2022-11-02T01:13:09;8.40;99.90
20524;DHT22;10420;48.542;12.270;2022-11-02T01:18:10;8.40;99.90
20524;DHT22;10420;48.542;12.270;2022-11-02T01:23:11;8.40;99.90
20524;DHT22;10420;48.542;12.270;2022-11-02T01:28:11;8.40;99.90
20524;DHT22;10420;48.542;12.270;2022-11-02T01:33:12;8.40;99.90
20524;DHT22;10420;48.542;12.270;2022-11-02T01:38:14;8.40;99.90
20524;DHT22;10420;48.542;12.270;2022-11-02T01:43:28;8.40;99.90
20524;DHT22;10420;48.542;12.270;2022-11-02T01:48:56;8.50;99.90
20524;DHT22;10420;48.542;12.270;2022-11-02T01:53:57;8.30;99.90
20524;DHT22;10420;48.542;12.270;2022-11-02T01:59:03;8.50;99.90
20524;DHT22;10420;48.542;12.270;2022-11-02T02:04:06;8.30;99.90
20524;DHT22;10420;48.542;12.270;2022-11-02T02:09:08;8.40;99.90
20524;DHT22;10420;48.542;12.270;2022-11-02T02:14:13;8.60;99.90
20524;DHT22;10420;48.542;12.270;2022-11-02T02:30:05;8.70;99.90
20524;DHT22;10420;48.542;12.270;2022-11-02T02:35:18;8.70;99.90
20524;DHT22;10420;48.542;12.270;2022-11-02T02:40:33;8.70;99.90
20524;DHT22;10420;48.542;12.270;2022-11-02T02:45:51;8.70;99.90
20524;DHT22;10420;48.542;12.270;2022-11-02T02:51:01;8.90;99.90
20524;DHT22;10420;48.542;12.270;2022-11-02T02:56:04;8.90;99.90
20524;DHT22;10420;48.542;12.270;2022-11-02T03:01:10;8.90;99.90
20524;DHT22;10420;48.542;12.270;2022-11-02T03:06:22;9.00;99.90
20524;DHT22;10420;48.542;12.270;2022-11-02T03:11:24;9.00;99.90
20524;DHT22;10420;48.542;12.270;2022-11-02T03:17:02;8.90;99.90
20524;DHT22;10420;48.542;12.270;2022-11-02T03:22:12;8.90;99.90
20524;DHT22;10420;48.542;12.270;2022-11-02T03:32:40;8.80;99.90
20524;DHT22;10420;48.542;12.270;2022-11-02T03:37:54;8.70;99.90
20524;DHT22;10420;48.542;12.270;2022-11-02T03:42:57;8.50;99.90
20524;DHT22;10420;48.542;12.270;2022-11-02T03:48:01;8.40;99.90
20524;DHT22;10420;48.542;12.270;2022-11-02T03:53:12;8.40;99.90
20524;DHT22;10420;48.542;12.270;2022-11-02T03:58:14;8.40;99.90
20524;DHT22;10420;48.542;12.270;2022-11-02T04:03:15;8.30;99.90
20524;DHT22;10420;48.542;12.270;2022-11-02T04:08:24;8.30;99.90
20524;DHT22;10420;48.542;12.270;2022-11-02T04:13:28;8.30;99.90
20524;DHT22;10420;48.542;12.270;2022-11-02T04:18:48;8.30;99.90
20524;DHT22;10420;48.542;12.270;2022-11-02T04:24:07;8.30;99.90
20524;DHT22;10420;48.542;12.270;2022-11-02T04:29:26;8.40;99.90
20524;DHT22;10420;48.542;12.270;2022-11-02T04:34:27;8.50;99.90
20524;DHT22;10420;48.542;12.270;2022-11-02T04:39:28;8.40;99.90
20524;DHT22;10420;48.542;12.270;2022-11-02T04:44:28;8.40;99.90
20524;DHT22;10420;48.542;12.270;2022-11-02T04:49:29;8.30;99.90
20524;DHT22;10420;48.542;12.270;2022-11-02T04:54:29;8.20;99.90
20524;DHT22;10420;48.542;12.270;2022-11-02T04:59:30;8.20;99.90
20524;DHT22;10420;48.542;12.270;2022-11-02T05:04:31;8.10;99.90
20524;DHT22;10420;48.542;12.270;2022-11-02T05:09:31;8.00;99.90
20524;DHT22;10420;48.542;12.270;2022-11-02T05:14:32;8.00;99.90
20524;DHT22;10420;48.542;12.270;2022-11-02T05:19:33;8.00;99.90
20524;DHT22;10420;48.542;12.270;2022-11-02T05:24:33;7.90;99.90
20524;DHT22;10420;48.542;12.270;2022-11-02T05:29:34;7.80;99.90
20524;DHT22;10420;48.542;12.270;2022-11-02T05:34:35;7.70;99.90
20524;DHT22;10420;48.542;12.270;2022-11-02T05:39:35;7.70;99.90
20524;DHT22;10420;48.542;12.270;2022-11-02T05:44:36;7.70;99.90
20524;DHT22;10420;48.542;12.270;2022-11-02T05:49:37;7.70;99.90
20524;DHT22;10420;48.542;12.270;2022-11-02T05:54:38;7.60;99.90
20524;DHT22;10420;48.542;12.270;2022-11-02T05:59:38;7.60;99.90
20524;DHT22;10420;48.542;12.270;2022-11-02T06:04:39;7.50;99.90
20524;DHT22;10420;48.542;12.270;2022-11-02T06:09:40;7.40;99.90
20524;DHT22;10420;48.542;12.270;2022-11-02T06:14:40;7.50;99.90
20524;DHT22;10420;48.542;12.270;2022-11-02T06:19:41;7.40;99.90
20524;DHT22;10420;48.542;12.270;2022-11-02T06:24:42;7.60;99.90
20524;DHT22;10420;48.542;12.270;2022-11-02T06:29:42;7.60;99.90
20524;DHT22;10420;48.542;12.270;2022-11-02T06:34:43;7.80;99.90
20524;DHT22;10420;48.542;12.270;2022-11-02T06:39:44;7.80;99.90
20524;DHT22;10420;48.542;12.270;2022-11-02T06:44:47;7.90;99.90
20524;DHT22;10420;48.542;12.270;2022-11-02T06:49:48;8.10;99.90
20524;DHT22;10420;48.542;12.270;2022-11-02T06:54:49;8.20;99.90
20524;DHT22;10420;48.542;12.270;2022-11-02T06:59:49;8.20;99.90
20524;DHT22;10420;48.542;12.270;2022-11-02T07:04:50;8.20;99.90
20524;DHT22;10420;48.542;12.270;2022-11-02T07:09:51;8.30;99.90
20524;DHT22;10420;48.542;12.270;2022-11-02T07:14:51;8.40;99.90
20524;DHT22;10420;48.542;12.270;2022-11-02T07:19:52;8.60;99.90
20524;DHT22;10420;48.542;12.270;2022-11-02T07:24:52;8.90;99.90
20524;DHT22;10420;48.542;12.270;2022-11-02T07:29:53;8.90;99.90
20524;DHT22;10420;48.542;12.270;2022-11-02T07:34:54;9.10;99.90
20524;DHT22;10420;48.542;12.270;2022-11-02T07:39:54;9.40;99.90
20524;DHT22;10420;48.542;12.270;2022-11-02T07:44:55;9.60;99.90
20524;DHT22;10420;48.542;12.270;2022-11-02T07:49:56;9.60;99.90
20524;DHT22;10420;48.542;12.270;2022-11-02T07:54:58;9.80;99.90
20524;DHT22;10420;48.542;12.270;2022-11-02T07:59:59;10.00;99.90
20524;DHT22;10420;48.542;12.270;2022-11-02T08:05:00;10.30;99.90
20524;DHT22;10420;48.542;12.270;2022-11-02T08:10:00;10.20;99.90
20524;DHT22;10420;48.542;12.270;2022-11-02T08:15:01;10.50;99.90
20524;DHT22;10420;48.542;12.270;2022-11-02T08:20:02;10.90;99.90
20524;DHT22;10420;48.542;12.270;2022-11-02T08:25:04;11.20;99.90
20524;DHT22;10420;48.542;12.270;2022-11-02T08:30:05;11.70;99.90
20524;DHT22;10420;48.542;12.270;2022-11-02T08:35:06;11.60;99.90
20524;DHT22;10420;48.542;12.270;2022-11-02T08:40:08;11.80;99.90
20524;DHT22;10420;48.542;12.270;2022-11-02T08:45:08;12.20;99.90
20524;DHT22;10420;48.542;12.270;2022-11-02T08:50:09;12.20;99.90
20524;DHT22;10420;48.542;12.270;2022-11-02T08:55:10;12.40;99.90
20524;DHT22;10420;48.542;12.270;2022-11-02T09:00:12;12.80;99.90
20524;DHT22;10420;48.542;12.270;2022-11-02T09:05:13;13.00;99.90
20524;DHT22;10420;48.542;12.270;2022-11-02T09:10:13;13.30;99.90
20524;DHT22;10420;48.542;12.270;2022-11-02T09:15:14;18.40;99.90
20524;DHT22;10420;48.542;12.270;2022-11-02T09:20:18;23.40;99.90
20524;DHT22;10420;48.542;12.270;2022-11-02T09:25:19;19.30;99.90
20524;DHT22;10420;48.542;12.270;2022-11-02T09:30:20;15.80;99.90
20524;DHT22;10420;48.542;12.270;2022-11-02T09:35:21;20.50;99.90
20524;DHT22;10420;48.542;12.270;2022-11-02T09:40:24;18.40;99.90
20524;DHT22;10420;48.542;12.270;2022-11-02T09:45:25;25.00;99.90
20524;DHT22;10420;48.542;12.270;2022-11-02T09:55:50;26.10;99.90
20524;DHT22;10420;48.542;12.270;2022-11-02T10:00:55;20.90;99.90
20524;DHT22;10420;48.542;12.270;2022-11-02T10:16:30;19.40;99.90
20524;DHT22;10420;48.542;12.270;2022-11-02T10:21:37;16.80;99.90
20524;DHT22;10420;48.542;12.270;2022-11-02T10:26:38;15.40;99.90
20524;DHT22;10420;48.542;12.270;2022-11-02T10:31:42;16.70;99.90
20524;DHT22;10420;48.542;12.270;2022-11-02T10:47:02;16.90;99.90
20524;DHT22;10420;48.542;12.270;2022-11-02T10:52:05;22.50;99.90
20524;DHT22;10420;48.542;12.270;2022-11-02T10:57:13;18.40;99.90
20524;DHT22;10420;48.542;12.270;2022-11-02T11:02:18;16.40;99.90
20524;DHT22;10420;48.542;12.270;2022-11-02T11:07:25;17.60;99.90
20524;DHT22;10420;48.542;12.270;2022-11-02T11:12:36;17.10;99.90
20524;DHT22;10420;48.542;12.270;2022-11-02T11:17:38;17.00;99.90
20524;DHT22;10420;48.542;12.270;2022-11-02T11:22:40;17.10;99.90
20524;DHT22;10420;48.542;12.270;2022-11-02T11:27:45;15.80;99.90
20524;DHT22;10420;48.542;12.270;2022-11-02T11:32:46;15.20;99.90
20524;DHT22;10420;48.542;12.270;2022-11-02T11:37:59;15.00;99.90
20524;DHT22;10420;48.542;12.270;2022-11-02T11:43:01;14.90;99.90
20524;DHT22;10420;48.542;12.270;2022-11-02T11:48:16;15.40;99.90
20524;DHT22;10420;48.542;12.270;2022-11-02T11:53:24;15.40;99.90
20524;DHT22;10420;48.542;12.270;2022-11-02T11:58:30;15.20;99.90
20524;DHT22;10420;48.542;12.270;2022-11-02T12:03:30;14.90;99.90
20524;DHT22;10420;48.542;12.270;2022-11-02T12:14:37;15.00;99.90
20524;DHT22;10420;48.542;12.270;2022-11-02T12:19:46;15.00;99.90
20524;DHT22;10420;48.542;12.270;2022-11-02T12:30:19;14.90;99.90
20524;DHT22;10420;48.542;12.270;2022-11-02T12:35:36;14.90;99.90
20524;DHT22;10420;48.542;12.270;2022-11-02T12:41:07;14.90;99.90
20524;DHT22;10420;48.542;12.270;2022-11-02T12:51:29;15.10;99.90
20524;DHT22;10420;48.542;12.270;2022-11-02T12:56:37;14.90;99.90
20524;DHT22;10420;48.542;12.270;2022-11-02T13:01:40;14.90;99.90
20524;DHT22;10420;48.542;12.270;2022-11-02T13:06:45;14.80;99.90
20524;DHT22;10420;48.542;12.270;2022-11-02T13:11:58;14.70;99.90
20524;DHT22;10420;48.542;12.270;2022-11-02T13:17:09;14.60;99.90
20524;DHT22;10420;48.542;12.270;2022-11-02T13:22:12;14.60;99.90
20524;DHT22;10420;48.542;12.270;2022-11-02T13:27:32;14.40;99.90
20524;DHT22;10420;48.542;12.270;2022-11-02T13:32:37;14.40;99.90
20524;DHT22;10420;48.542;12.270;2022-11-02T13:37:44;14.30;99.90
20524;DHT22;10420;48.542;12.270;2022-11-02T13:48:16;14.30;99.90
20524;DHT22;10420;48.542;12.270;2022-11-02T13:53:29;14.20;99.90
20524;DHT22;10420;48.542;12.270;2022-11-02T13:58:40;14.10;99.90
20524;DHT22;10420;48.542;12.270;2022-11-02T14:08:53;13.70;99.90
20524;DHT22;10420;48.542;12.270;2022-11-02T14:19:47;13.60;99.90
20524;DHT22;10420;48.542;12.270;2022-11-02T14:29:54;13.50;99.90
20524;DHT22;10420;48.542;12.270;2022-11-02T14:40:10;13.20;99.90
20524;DHT22;10420;48.542;12.270;2022-11-02T14:50:17;12.70;99.90
20524;DHT22;10420;48.542;12.270;2022-11-02T14:55:31;12.50;99.90
20524;DHT22;10420;48.542;12.270;2022-11-02T15:00:37;12.30;99.90
20524;DHT22;10420;48.542;12.270;2022-11-02T15:05:58;12.20;99.90
20524;DHT22;10420;48.542;12.270;2022-11-02T15:16:39;11.90;99.90
20524;DHT22;10420;48.542;12.270;2022-11-02T15:21:41;11.60;99.90
20524;DHT22;10420;48.542;12.270;2022-11-02T15:27:15;11.40;99.90
20524;DHT22;10420;48.542;12.270;2022-11-02T15:32:21;11.20;99.90
20524;DHT22;10420;48.542;12.270;2022-11-02T15:37:28;10.90;99.90
20524;DHT22;10420;48.542;12.270;2022-11-02T15:43:11;10.80;99.90
20524;DHT22;10420;48.542;12.270;2022-11-02T15:48:27;10.80;99.90
20524;DHT22;10420;48.542;12.270;2022-11-02T15:53:39;10.60;99.90
20524;DHT22;10420;48.542;12.270;2022-11-02T16:04:01;10.00;99.90
20524;DHT22;10420;48.542;12.270;2022-11-02T16:14:32;9.80;99.90
20524;DHT22;10420;48.542;12.270;2022-11-02T16:19:32;9.50;99.90
20524;DHT22;10420;48.542;12.270;2022-11-02T16:24:33;9.40;99.90
20524;DHT22;10420;48.542;12.270;2022-11-02T16:29:34;9.20;99.90
20524;DHT22;10420;48.542;12.270;2022-11-02T16:34:36;9.20;99.90
20524;DHT22;10420;48.542;12.270;2022-11-02T16:39:37;9.10;99.90
20524;DHT22;10420;48.542;12.270;2022-11-02T16:44:41;9.10;99.90
20524;DHT22;10420;48.542;12.270;2022-11-02T16:54:49;8.70;99.90
20524;DHT22;10420;48.542;12.270;2022-11-02T17:00:05;8.60;99.90
20524;DHT22;10420;48.542;12.270;2022-11-02T17:05:22;8.60;99.90
20524;DHT22;10420;48.542;12.270;2022-11-02T17:10:27;8.50;99.90
20524;DHT22;10420;48.542;12.270;2022-11-02T17:15:30;8.40;99.90
20524;DHT22;10420;48.542;12.270;2022-11-02T17:20:35;8.20;99.90
20524;DHT22;10420;48.542;12.270;2022-11-02T17:25:38;8.10;99.90
20524;DHT22;10420;48.542;12.270;2022-11-02T17:30:40;8.10;99.90
20524;DHT22;10420;48.542;12.270;2022-11-02T17:35:48;7.90;99.90
20524;DHT22;10420;48.542;12.270;2022-11-02T17:40:50;7.80;99.90
20524;DHT22;10420;48.542;12.270;2022-11-02T17:45:58;7.80;99.90
20524;DHT22;10420;48.542;12.270;2022-11-02T17:50:59;7.70;99.90
20524;DHT22;10420;48.542;12.270;2022-11-02T17:56:00;7.60;99.90
20524;DHT22;10420;48.542;12.270;2022-11-02T18:01:05;7.70;99.90
20524;DHT22;10420;48.542;12.270;2022-11-02T18:06:06;7.50;99.90
20524;DHT22;10420;48.542;12.270;2022-11-02T18:11:08;7.40;99.90
20524;DHT22;10420;48.542;12.270;2022-11-02T18:16:08;7.30;99.90
20524;DHT22;10420;48.542;12.270;2022-11-02T18:21:10;7.50;99.90
20524;DHT22;10420;48.542;12.270;2022-11-02T18:26:12;7.40;99.90
20524;DHT22;10420;48.542;12.270;2022-11-02T18:31:12;7.10;99.90
20524;DHT22;10420;48.542;12.270;2022-11-02T18:36:13;7.10;99.90
20524;DHT22;10420;48.542;12.270;2022-11-02T18:41:14;7.00;99.90
20524;DHT22;10420;48.542;12.270;2022-11-02T18:46:34;7.00;99.90
20524;DHT22;10420;48.542;12.270;2022-11-02T18:51:35;6.90;99.90
20524;DHT22;10420;48.542;12.270;2022-11-02T18:56:39;6.70;99.90
20524;DHT22;10420;48.542;12.270;2022-11-02T19:01:42;6.90;99.90
20524;DHT22;10420;48.542;12.270;2022-11-02T19:06:43;6.80;99.90
20524;DHT22;10420;48.542;12.270;2022-11-02T19:12:08;6.50;99.90
20524;DHT22;10420;48.542;12.270;2022-11-02T19:17:10;6.60;99.90
20524;DHT22;10420;48.542;12.270;2022-11-02T19:22:12;6.50;99.90
20524;DHT22;10420;48.542;12.270;2022-11-02T19:27:15;6.50;99.90
20524;DHT22;10420;48.542;12.270;2022-11-02T19:32:17;6.50;99.90
20524;DHT22;10420;48.542;12.270;2022-11-02T19:37:17;6.60;99.90
20524;DHT22;10420;48.542;12.270;2022-11-02T19:42:18;6.40;99.90
20524;DHT22;10420;48.542;12.270;2022-11-02T19:47:19;6.50;99.90
20524;DHT22;10420;48.542;12.270;2022-11-02T19:52:20;6.30;99.90
20524;DHT22;10420;48.542;12.270;2022-11-02T19:57:23;6.40;99.90
20524;DHT22;10420;48.542;12.270;2022-11-02T20:02:26;6.30;99.90
20524;DHT22;10420;48.542;12.270;2022-11-02T20:07:27;6.20;99.90
20524;DHT22;10420;48.542;12.270;2022-11-02T20:12:28;6.30;99.90
20524;DHT22;10420;48.542;12.270;2022-11-02T20:17:28;6.30;99.90
20524;DHT22;10420;48.542;12.270;2022-11-02T20:22:29;6.00;99.90
20524;DHT22;10420;48.542;12.270;2022-11-02T20:27:30;6.10;99.90
20524;DHT22;10420;48.542;12.270;2022-11-02T20:32:30;6.00;99.90
20524;DHT22;10420;48.542;12.270;2022-11-02T20:37:34;5.90;99.90
20524;DHT22;10420;48.542;12.270;2022-11-02T20:42:35;5.90;99.90
20524;DHT22;10420;48.542;12.270;2022-11-02T20:47:35;6.00;99.90
20524;DHT22;10420;48.542;12.270;2022-11-02T20:52:36;6.00;99.90
20524;DHT22;10420;48.542;12.270;2022-11-02T20:57:38;5.80;99.90
20524;DHT22;10420;48.542;12.270;2022-11-02T21:02:38;5.40;99.90
20524;DHT22;10420;48.542;12.270;2022-11-02T21:07:39;5.80;99.90
20524;DHT22;10420;48.542;12.270;2022-11-02T21:12:40;5.70;99.90
20524;DHT22;10420;48.542;12.270;2022-11-02T21:17:59;5.70;99.90
20524;DHT22;10420;48.542;12.270;2022-11-02T21:23:01;5.70;99.90
20524;DHT22;10420;48.542;12.270;2022-11-02T21:28:02;5.60;99.90
20524;DHT22;10420;48.542;12.270;2022-11-02T21:33:03;5.60;99.90
20524;DHT22;10420;48.542;12.270;2022-11-02T21:38:03;5.40;99.90
20524;DHT22;10420;48.542;12.270;2022-11-02T21:43:04;5.60;99.90
20524;DHT22;10420;48.542;12.270;2022-11-02T21:48:05;5.30;99.90
20524;DHT22;10420;48.542;12.270;2022-11-02T21:53:05;5.30;99.90
20524;DHT22;10420;48.542;12.270;2022-11-02T21:58:06;5.40;99.90
20524;DHT22;10420;48.542;12.270;2022-11-02T22:03:07;5.50;99.90
20524;DHT22;10420;48.542;12.270;2022-11-02T22:08:07;5.30;99.90
20524;DHT22;10420;48.542;12.270;2022-11-02T22:13:26;5.30;99.90
20524;DHT22;10420;48.542;12.270;2022-11-02T22:18:33;5.30;99.90
20524;DHT22;10420;48.542;12.270;2022-11-02T22:23:34;5.20;99.90
20524;DHT22;10420;48.542;12.270;2022-11-02T22:28:37;5.20;99.90
20524;DHT22;10420;48.542;12.270;2022-11-02T22:33:41;5.30;99.90
20524;DHT22;10420;48.542;12.270;2022-11-02T22:38:43;5.20;99.90
20524;DHT22;10420;48.542;12.270;2022-11-02T22:44:01;5.20;99.90
20524;DHT22;10420;48.542;12.270;2022-11-02T22:49:03;5.00;99.90
20524;DHT22;10420;48.542;12.270;2022-11-02T22:54:07;5.00;99.90
20524;DHT22;10420;48.542;12.270;2022-11-02T22:59:07;5.00;99.90
20524;DHT22;10420;48.542;12.270;2022-11-02T23:04:09;5.00;99.90
20524;DHT22;10420;48.542;12.270;2022-11-02T23:09:10;5.10;99.90
20524;DHT22;10420;48.542;12.270;2022-11-02T23:14:13;5.10;99.90
20524;DHT22;10420;48.542;12.270;2022-11-02T23:19:18;5.00;99.90
20524;DHT22;10420;48.542;12.270;2022-11-02T23:24:22;4.90;99.90
20524;DHT22;10420;48.542;12.270;2022-11-02T23:29:42;4.90;99.90
20524;DHT22;10420;48.542;12.270;2022-11-02T23:35:02;5.10;99.90
20524;DHT22;10420;48.542;12.270;2022-11-02T23:40:21;5.00;99.90
20524;DHT22;10420;48.542;12.270;2022-11-02T23:45:22;5.00;99.90
20524;DHT22;10420;48.542;12.270;2022-11-02T23:50:24;5.00;99.90
20524;DHT22;10420;48.542;12.270;2022-11-02T23:55:44;5.00;99.90
